sensor_id;sensor_type;location;lat;lon;timestamp;P1;durP1;ratioP1;P2;durP2;ratioP2
42244;SDS011;27912;51.828;5.688;2023-05-10T00:00:00;55.03;;;26.92;;
42244;SDS011;27912;51.828;5.688;2023-05-10T00:02:25;50.08;;;25.38;;
42244;SDS011;27912;51.828;5.688;2023-05-10T00:04:51;53.75;;;26.35;;
42244;SDS011;27912;51.828;5.688;2023-05-10T00:07:17;49.00;;;24.02;;
42244;SDS011;27912;51.828;5.688;2023-05-10T00:09:43;53.22;;;24.55;;
42244;SDS011;27912;51.828;5.688;2023-05-10T00:12:09;43.38;;;23.15;;
42244;SDS011;27912;51.828;5.688;2023-05-10T00:14:34;50.03;;;24.55;;
42244;SDS011;27912;51.828;5.688;2023-05-10T00:17:00;51.45;;;24.23;;
42244;SDS011;27912;51.828;5.688;2023-05-10T00:19:26;51.55;;;24.63;;
42244;SDS011;27912;51.828;5.688;2023-05-10T00:21:51;52.03;;;24.20;;
42244;SDS011;27912;51.828;5.688;2023-05-10T00:24:17;47.55;;;23.35;;
42244;SDS011;27912;51.828;5.688;2023-05-10T00:26:42;51.35;;;23.45;;
42244;SDS011;27912;51.828;5.688;2023-05-10T00:29:08;53.42;;;23.95;;
42244;SDS011;27912;51.828;5.688;2023-05-10T00:31:33;49.90;;;23.48;;
42244;SDS011;27912;51.828;5.688;2023-05-10T00:33:59;49.50;;;23.48;;
42244;SDS011;27912;51.828;5.688;2023-05-10T00:36:24;49.17;;;24.27;;
42244;SDS011;27912;51.828;5.688;2023-05-10T00:38:50;50.08;;;22.60;;
42244;SDS011;27912;51.828;5.688;2023-05-10T00:41:16;46.78;;;21.92;;
42244;SDS011;27912;51.828;5.688;2023-05-10T00:43:42;48.08;;;23.10;;
42244;SDS011;27912;51.828;5.688;2023-05-10T00:46:07;48.15;;;25.15;;
42244;SDS011;27912;51.828;5.688;2023-05-10T00:48:33;51.13;;;24.08;;
42244;SDS011;27912;51.828;5.688;2023-05-10T00:50:59;47.92;;;23.27;;
42244;SDS011;27912;51.828;5.688;2023-05-10T00:53:26;54.33;;;24.50;;
42244;SDS011;27912;51.828;5.688;2023-05-10T00:55:52;53.40;;;25.02;;
42244;SDS011;27912;51.828;5.688;2023-05-10T00:58:18;54.70;;;24.85;;
42244;SDS011;27912;51.828;5.688;2023-05-10T01:00:43;57.00;;;25.10;;
42244;SDS011;27912;51.828;5.688;2023-05-10T01:03:12;61.05;;;26.73;;
42244;SDS011;27912;51.828;5.688;2023-05-10T01:05:37;64.10;;;26.98;;
42244;SDS011;27912;51.828;5.688;2023-05-10T01:08:03;65.88;;;25.38;;
42244;SDS011;27912;51.828;5.688;2023-05-10T01:10:29;64.28;;;28.00;;
42244;SDS011;27912;51.828;5.688;2023-05-10T01:12:56;65.72;;;27.58;;
42244;SDS011;27912;51.828;5.688;2023-05-10T01:15:21;67.13;;;27.48;;
42244;SDS011;27912;51.828;5.688;2023-05-10T01:17:48;68.13;;;28.70;;
42244;SDS011;27912;51.828;5.688;2023-05-10T01:20:14;68.75;;;28.63;;
42244;SDS011;27912;51.828;5.688;2023-05-10T01:28:35;81.60;;;29.83;;
42244;SDS011;27912;51.828;5.688;2023-05-10T01:31:23;70.93;;;31.92;;
42244;SDS011;27912;51.828;5.688;2023-05-10T01:34:09;70.80;;;32.20;;
42244;SDS011;27912;51.828;5.688;2023-05-10T01:36:48;80.93;;;33.33;;
42244;SDS011;27912;51.828;5.688;2023-05-10T01:39:25;76.28;;;33.25;;
42244;SDS011;27912;51.828;5.688;2023-05-10T01:42:17;73.95;;;33.35;;
42244;SDS011;27912;51.828;5.688;2023-05-10T01:44:54;81.63;;;33.45;;
42244;SDS011;27912;51.828;5.688;2023-05-10T01:47:44;70.20;;;32.67;;
42244;SDS011;27912;51.828;5.688;2023-05-10T01:50:16;76.95;;;33.95;;
42244;SDS011;27912;51.828;5.688;2023-05-10T01:52:47;71.32;;;33.00;;
42244;SDS011;27912;51.828;5.688;2023-05-10T01:55:18;75.18;;;31.70;;
42244;SDS011;27912;51.828;5.688;2023-05-10T01:57:46;71.25;;;30.83;;
42244;SDS011;27912;51.828;5.688;2023-05-10T02:00:13;81.18;;;35.13;;
42244;SDS011;27912;51.828;5.688;2023-05-10T02:02:40;78.60;;;35.55;;
42244;SDS011;27912;51.828;5.688;2023-05-10T02:05:10;84.07;;;36.95;;
42244;SDS011;27912;51.828;5.688;2023-05-10T02:07:39;82.07;;;37.83;;
42244;SDS011;27912;51.828;5.688;2023-05-10T02:10:06;86.32;;;38.95;;
42244;SDS011;27912;51.828;5.688;2023-05-10T02:12:36;88.53;;;39.05;;
42244;SDS011;27912;51.828;5.688;2023-05-10T02:15:05;89.95;;;39.42;;
42244;SDS011;27912;51.828;5.688;2023-05-10T02:17:32;87.07;;;39.92;;
42244;SDS011;27912;51.828;5.688;2023-05-10T02:19:59;87.47;;;40.03;;
42244;SDS011;27912;51.828;5.688;2023-05-10T02:22:26;84.82;;;38.13;;
42244;SDS011;27912;51.828;5.688;2023-05-10T02:24:53;74.45;;;37.58;;
42244;SDS011;27912;51.828;5.688;2023-05-10T02:27:23;80.13;;;38.33;;
42244;SDS011;27912;51.828;5.688;2023-05-10T02:29:50;78.35;;;34.95;;
42244;SDS011;27912;51.828;5.688;2023-05-10T02:32:17;86.20;;;37.55;;
42244;SDS011;27912;51.828;5.688;2023-05-10T02:34:43;87.97;;;41.33;;
42244;SDS011;27912;51.828;5.688;2023-05-10T02:37:10;89.32;;;38.22;;
42244;SDS011;27912;51.828;5.688;2023-05-10T02:39:40;90.05;;;38.67;;
42244;SDS011;27912;51.828;5.688;2023-05-10T02:42:09;80.85;;;38.30;;
42244;SDS011;27912;51.828;5.688;2023-05-10T02:44:43;93.28;;;40.30;;
42244;SDS011;27912;51.828;5.688;2023-05-10T02:47:12;93.95;;;38.42;;
42244;SDS011;27912;51.828;5.688;2023-05-10T02:49:38;89.53;;;38.60;;
42244;SDS011;27912;51.828;5.688;2023-05-10T02:52:05;90.18;;;39.75;;
42244;SDS011;27912;51.828;5.688;2023-05-10T02:54:44;91.97;;;38.78;;
42244;SDS011;27912;51.828;5.688;2023-05-10T02:57:14;93.05;;;39.55;;
42244;SDS011;27912;51.828;5.688;2023-05-10T02:59:44;97.30;;;37.45;;
42244;SDS011;27912;51.828;5.688;2023-05-10T03:02:10;89.88;;;38.55;;
42244;SDS011;27912;51.828;5.688;2023-05-10T03:04:37;90.13;;;39.38;;
42244;SDS011;27912;51.828;5.688;2023-05-10T03:07:03;85.90;;;36.95;;
42244;SDS011;27912;51.828;5.688;2023-05-10T03:09:29;89.63;;;37.00;;
42244;SDS011;27912;51.828;5.688;2023-05-10T03:17:52;82.05;;;35.78;;
42244;SDS011;27912;51.828;5.688;2023-05-10T03:20:24;94.88;;;35.97;;
42244;SDS011;27912;51.828;5.688;2023-05-10T03:23:01;97.28;;;37.10;;
42244;SDS011;27912;51.828;5.688;2023-05-10T03:25:32;97.30;;;37.92;;
42244;SDS011;27912;51.828;5.688;2023-05-10T03:27:58;99.88;;;36.45;;
42244;SDS011;27912;51.828;5.688;2023-05-10T03:30:26;113.35;;;39.10;;
42244;SDS011;27912;51.828;5.688;2023-05-10T03:32:52;86.55;;;31.80;;
42244;SDS011;27912;51.828;5.688;2023-05-10T03:35:19;55.65;;;26.00;;
42244;SDS011;27912;51.828;5.688;2023-05-10T03:37:44;74.53;;;26.45;;
42244;SDS011;27912;51.828;5.688;2023-05-10T03:40:10;97.03;;;31.98;;
42244;SDS011;27912;51.828;5.688;2023-05-10T03:42:36;102.63;;;34.95;;
42244;SDS011;27912;51.828;5.688;2023-05-10T03:45:01;100.28;;;34.80;;
42244;SDS011;27912;51.828;5.688;2023-05-10T03:47:27;97.05;;;34.60;;
42244;SDS011;27912;51.828;5.688;2023-05-10T03:49:54;89.97;;;32.92;;
42244;SDS011;27912;51.828;5.688;2023-05-10T03:52:20;95.13;;;33.78;;
42244;SDS011;27912;51.828;5.688;2023-05-10T03:54:45;103.85;;;35.42;;
42244;SDS011;27912;51.828;5.688;2023-05-10T03:57:11;112.95;;;34.88;;
42244;SDS011;27912;51.828;5.688;2023-05-10T03:59:36;100.82;;;35.60;;
42244;SDS011;27912;51.828;5.688;2023-05-10T04:02:02;109.35;;;33.35;;
42244;SDS011;27912;51.828;5.688;2023-05-10T04:04:27;123.10;;;36.10;;
42244;SDS011;27912;51.828;5.688;2023-05-10T04:06:53;107.93;;;38.20;;
42244;SDS011;27912;51.828;5.688;2023-05-10T04:09:19;101.68;;;37.33;;
42244;SDS011;27912;51.828;5.688;2023-05-10T04:11:45;108.03;;;36.60;;
42244;SDS011;27912;51.828;5.688;2023-05-10T04:14:11;111.75;;;36.97;;
42244;SDS011;27912;51.828;5.688;2023-05-10T04:16:36;111.75;;;39.70;;
42244;SDS011;27912;51.828;5.688;2023-05-10T04:19:02;99.55;;;37.05;;
42244;SDS011;27912;51.828;5.688;2023-05-10T04:21:28;114.65;;;38.50;;
42244;SDS011;27912;51.828;5.688;2023-05-10T04:23:54;114.65;;;38.45;;
42244;SDS011;27912;51.828;5.688;2023-05-10T04:26:19;109.03;;;40.60;;
42244;SDS011;27912;51.828;5.688;2023-05-10T04:28:45;110.50;;;40.83;;
42244;SDS011;27912;51.828;5.688;2023-05-10T04:31:14;124.07;;;43.50;;
42244;SDS011;27912;51.828;5.688;2023-05-10T04:33:43;110.47;;;41.78;;
42244;SDS011;27912;51.828;5.688;2023-05-10T04:36:14;107.18;;;43.17;;
42244;SDS011;27912;51.828;5.688;2023-05-10T04:38:43;106.93;;;43.25;;
42244;SDS011;27912;51.828;5.688;2023-05-10T04:43:38;102.15;;;39.58;;
42244;SDS011;27912;51.828;5.688;2023-05-10T04:46:06;124.72;;;44.42;;
42244;SDS011;27912;51.828;5.688;2023-05-10T04:48:34;106.53;;;41.35;;
42244;SDS011;27912;51.828;5.688;2023-05-10T04:51:05;114.38;;;44.30;;
42244;SDS011;27912;51.828;5.688;2023-05-10T04:53:31;118.80;;;45.58;;
42244;SDS011;27912;51.828;5.688;2023-05-10T04:56:00;107.10;;;43.33;;
42244;SDS011;27912;51.828;5.688;2023-05-10T04:58:29;110.38;;;43.00;;
42244;SDS011;27912;51.828;5.688;2023-05-10T05:01:08;105.05;;;42.80;;
42244;SDS011;27912;51.828;5.688;2023-05-10T05:03:37;114.80;;;45.58;;
42244;SDS011;27912;51.828;5.688;2023-05-10T05:06:03;101.75;;;43.28;;
42244;SDS011;27912;51.828;5.688;2023-05-10T05:08:33;104.13;;;43.35;;
42244;SDS011;27912;51.828;5.688;2023-05-10T05:10:58;97.85;;;41.63;;
42244;SDS011;27912;51.828;5.688;2023-05-10T05:13:24;98.90;;;43.17;;
42244;SDS011;27912;51.828;5.688;2023-05-10T05:15:50;105.28;;;44.63;;
42244;SDS011;27912;51.828;5.688;2023-05-10T05:18:15;106.35;;;44.70;;
42244;SDS011;27912;51.828;5.688;2023-05-10T05:20:41;105.95;;;44.65;;
42244;SDS011;27912;51.828;5.688;2023-05-10T05:23:06;95.70;;;43.10;;
42244;SDS011;27912;51.828;5.688;2023-05-10T05:25:32;99.82;;;42.70;;
42244;SDS011;27912;51.828;5.688;2023-05-10T05:27:58;97.80;;;41.53;;
42244;SDS011;27912;51.828;5.688;2023-05-10T05:30:24;90.45;;;40.92;;
42244;SDS011;27912;51.828;5.688;2023-05-10T05:32:49;103.68;;;47.08;;
42244;SDS011;27912;51.828;5.688;2023-05-10T05:35:15;84.60;;;38.95;;
42244;SDS011;27912;51.828;5.688;2023-05-10T05:37:40;102.00;;;45.15;;
42244;SDS011;27912;51.828;5.688;2023-05-10T05:40:06;98.50;;;42.95;;
42244;SDS011;27912;51.828;5.688;2023-05-10T05:42:32;93.90;;;42.88;;
42244;SDS011;27912;51.828;5.688;2023-05-10T05:44:58;97.85;;;42.13;;
42244;SDS011;27912;51.828;5.688;2023-05-10T05:47:24;91.18;;;40.13;;
42244;SDS011;27912;51.828;5.688;2023-05-10T05:49:49;100.20;;;40.50;;
42244;SDS011;27912;51.828;5.688;2023-05-10T05:52:15;91.45;;;40.50;;
42244;SDS011;27912;51.828;5.688;2023-05-10T05:54:40;88.75;;;38.58;;
42244;SDS011;27912;51.828;5.688;2023-05-10T05:57:06;83.57;;;35.88;;
42244;SDS011;27912;51.828;5.688;2023-05-10T05:59:32;88.15;;;37.63;;
42244;SDS011;27912;51.828;5.688;2023-05-10T06:01:58;84.72;;;35.83;;
42244;SDS011;27912;51.828;5.688;2023-05-10T06:04:23;85.53;;;36.03;;
42244;SDS011;27912;51.828;5.688;2023-05-10T06:06:49;83.88;;;35.05;;
42244;SDS011;27912;51.828;5.688;2023-05-10T06:09:14;78.30;;;32.33;;
42244;SDS011;27912;51.828;5.688;2023-05-10T06:11:40;83.00;;;34.53;;
42244;SDS011;27912;51.828;5.688;2023-05-10T06:14:06;85.38;;;35.15;;
42244;SDS011;27912;51.828;5.688;2023-05-10T06:16:33;83.43;;;34.65;;
42244;SDS011;27912;51.828;5.688;2023-05-10T06:18:59;87.03;;;35.22;;
42244;SDS011;27912;51.828;5.688;2023-05-10T06:21:25;88.22;;;39.20;;
42244;SDS011;27912;51.828;5.688;2023-05-10T06:23:50;83.57;;;38.10;;
42244;SDS011;27912;51.828;5.688;2023-05-10T06:26:16;81.13;;;36.80;;
42244;SDS011;27912;51.828;5.688;2023-05-10T06:28:41;75.95;;;34.13;;
42244;SDS011;27912;51.828;5.688;2023-05-10T06:31:07;81.03;;;35.00;;
42244;SDS011;27912;51.828;5.688;2023-05-10T06:33:33;90.93;;;36.30;;
42244;SDS011;27912;51.828;5.688;2023-05-10T06:35:58;72.07;;;30.95;;
42244;SDS011;27912;51.828;5.688;2023-05-10T06:38:24;72.38;;;31.52;;
42244;SDS011;27912;51.828;5.688;2023-05-10T06:40:50;89.50;;;35.80;;
42244;SDS011;27912;51.828;5.688;2023-05-10T06:43:16;89.32;;;35.67;;
42244;SDS011;27912;51.828;5.688;2023-05-10T06:45:42;77.50;;;33.55;;
42244;SDS011;27912;51.828;5.688;2023-05-10T06:48:07;79.55;;;34.75;;
42244;SDS011;27912;51.828;5.688;2023-05-10T06:50:33;79.55;;;33.38;;
42244;SDS011;27912;51.828;5.688;2023-05-10T06:52:59;75.70;;;35.25;;
42244;SDS011;27912;51.828;5.688;2023-05-10T06:55:25;82.15;;;36.28;;
42244;SDS011;27912;51.828;5.688;2023-05-10T06:57:51;81.63;;;34.97;;
42244;SDS011;27912;51.828;5.688;2023-05-10T07:00:17;88.20;;;35.97;;
42244;SDS011;27912;51.828;5.688;2023-05-10T07:02:43;79.15;;;33.67;;
42244;SDS011;27912;51.828;5.688;2023-05-10T07:05:09;71.68;;;33.80;;
42244;SDS011;27912;51.828;5.688;2023-05-10T07:07:35;79.15;;;35.72;;
42244;SDS011;27912;51.828;5.688;2023-05-10T07:10:00;79.68;;;35.45;;
42244;SDS011;27912;51.828;5.688;2023-05-10T07:12:26;79.03;;;36.65;;
42244;SDS011;27912;51.828;5.688;2023-05-10T07:14:52;73.35;;;33.55;;
42244;SDS011;27912;51.828;5.688;2023-05-10T07:17:18;79.68;;;35.22;;
42244;SDS011;27912;51.828;5.688;2023-05-10T07:19:43;83.95;;;37.25;;
42244;SDS011;27912;51.828;5.688;2023-05-10T07:22:09;78.93;;;36.22;;
42244;SDS011;27912;51.828;5.688;2023-05-10T07:24:34;78.28;;;35.42;;
42244;SDS011;27912;51.828;5.688;2023-05-10T07:27:00;75.85;;;36.70;;
42244;SDS011;27912;51.828;5.688;2023-05-10T07:29:26;82.63;;;36.13;;
42244;SDS011;27912;51.828;5.688;2023-05-10T07:31:51;76.78;;;35.88;;
42244;SDS011;27912;51.828;5.688;2023-05-10T07:34:17;74.55;;;36.38;;
42244;SDS011;27912;51.828;5.688;2023-05-10T07:36:43;79.13;;;36.78;;
42244;SDS011;27912;51.828;5.688;2023-05-10T07:39:09;81.22;;;38.22;;
42244;SDS011;27912;51.828;5.688;2023-05-10T07:41:35;83.63;;;37.55;;
42244;SDS011;27912;51.828;5.688;2023-05-10T07:44:02;86.57;;;38.80;;
42244;SDS011;27912;51.828;5.688;2023-05-10T07:46:28;83.85;;;38.90;;
42244;SDS011;27912;51.828;5.688;2023-05-10T07:48:54;86.80;;;40.95;;
42244;SDS011;27912;51.828;5.688;2023-05-10T07:51:20;96.80;;;43.47;;
42244;SDS011;27912;51.828;5.688;2023-05-10T07:53:46;93.60;;;41.15;;
42244;SDS011;27912;51.828;5.688;2023-05-10T07:56:27;91.07;;;41.63;;
42244;SDS011;27912;51.828;5.688;2023-05-10T07:58:55;95.78;;;43.25;;
42244;SDS011;27912;51.828;5.688;2023-05-10T08:01:21;85.80;;;40.97;;
42244;SDS011;27912;51.828;5.688;2023-05-10T08:03:47;86.72;;;40.75;;
42244;SDS011;27912;51.828;5.688;2023-05-10T08:06:14;81.13;;;42.05;;
42244;SDS011;27912;51.828;5.688;2023-05-10T08:08:40;77.57;;;41.45;;
42244;SDS011;27912;51.828;5.688;2023-05-10T08:11:06;80.93;;;40.53;;
42244;SDS011;27912;51.828;5.688;2023-05-10T08:13:32;73.63;;;37.35;;
42244;SDS011;27912;51.828;5.688;2023-05-10T08:15:58;71.72;;;37.38;;
42244;SDS011;27912;51.828;5.688;2023-05-10T08:18:23;73.68;;;36.40;;
42244;SDS011;27912;51.828;5.688;2023-05-10T08:20:49;67.60;;;36.38;;
42244;SDS011;27912;51.828;5.688;2023-05-10T08:23:15;75.47;;;36.13;;
42244;SDS011;27912;51.828;5.688;2023-05-10T08:25:41;78.65;;;39.03;;
42244;SDS011;27912;51.828;5.688;2023-05-10T08:28:06;81.57;;;38.47;;
42244;SDS011;27912;51.828;5.688;2023-05-10T08:30:34;81.75;;;37.63;;
42244;SDS011;27912;51.828;5.688;2023-05-10T08:33:00;71.75;;;36.05;;
42244;SDS011;27912;51.828;5.688;2023-05-10T08:35:25;68.68;;;34.78;;
42244;SDS011;27912;51.828;5.688;2023-05-10T08:37:51;62.92;;;31.13;;
42244;SDS011;27912;51.828;5.688;2023-05-10T08:40:16;69.95;;;32.72;;
42244;SDS011;27912;51.828;5.688;2023-05-10T08:42:51;62.78;;;29.95;;
42244;SDS011;27912;51.828;5.688;2023-05-10T08:45:40;55.20;;;27.10;;
42244;SDS011;27912;51.828;5.688;2023-05-10T08:48:07;59.58;;;27.52;;
42244;SDS011;27912;51.828;5.688;2023-05-10T08:50:35;56.90;;;27.27;;
42244;SDS011;27912;51.828;5.688;2023-05-10T08:53:03;50.45;;;25.83;;
42244;SDS011;27912;51.828;5.688;2023-05-10T08:55:32;55.25;;;25.90;;
42244;SDS011;27912;51.828;5.688;2023-05-10T08:58:02;48.95;;;24.80;;
42244;SDS011;27912;51.828;5.688;2023-05-10T09:00:29;47.72;;;24.52;;
42244;SDS011;27912;51.828;5.688;2023-05-10T09:02:55;42.20;;;22.15;;
42244;SDS011;27912;51.828;5.688;2023-05-10T09:05:22;48.20;;;24.08;;
42244;SDS011;27912;51.828;5.688;2023-05-10T09:07:48;45.35;;;24.00;;
42244;SDS011;27912;51.828;5.688;2023-05-10T09:10:14;48.92;;;25.15;;
42244;SDS011;27912;51.828;5.688;2023-05-10T09:12:40;45.15;;;23.52;;
42244;SDS011;27912;51.828;5.688;2023-05-10T09:15:06;38.03;;;21.38;;
42244;SDS011;27912;51.828;5.688;2023-05-10T09:17:37;36.80;;;22.05;;
42244;SDS011;27912;51.828;5.688;2023-05-10T09:20:05;39.90;;;20.73;;
42244;SDS011;27912;51.828;5.688;2023-05-10T09:22:32;34.65;;;19.27;;
42244;SDS011;27912;51.828;5.688;2023-05-10T09:25:11;25.80;;;14.35;;
42244;SDS011;27912;51.828;5.688;2023-05-10T09:27:44;25.02;;;12.90;;
42244;SDS011;27912;51.828;5.688;2023-05-10T09:30:14;20.65;;;11.40;;
42244;SDS011;27912;51.828;5.688;2023-05-10T09:32:42;22.60;;;12.10;;
42244;SDS011;27912;51.828;5.688;2023-05-10T09:35:13;21.77;;;11.63;;
42244;SDS011;27912;51.828;5.688;2023-05-10T09:37:41;20.73;;;11.57;;
42244;SDS011;27912;51.828;5.688;2023-05-10T09:40:08;18.98;;;11.45;;
42244;SDS011;27912;51.828;5.688;2023-05-10T09:42:37;19.50;;;10.73;;
42244;SDS011;27912;51.828;5.688;2023-05-10T09:45:04;18.67;;;10.07;;
42244;SDS011;27912;51.828;5.688;2023-05-10T09:47:36;16.52;;;10.48;;
42244;SDS011;27912;51.828;5.688;2023-05-10T09:50:02;13.73;;;9.07;;
42244;SDS011;27912;51.828;5.688;2023-05-10T09:55:37;14.70;;;8.60;;
42244;SDS011;27912;51.828;5.688;2023-05-10T09:58:03;16.13;;;8.82;;
42244;SDS011;27912;51.828;5.688;2023-05-10T10:00:38;15.52;;;8.98;;
42244;SDS011;27912;51.828;5.688;2023-05-10T10:03:05;14.18;;;9.27;;
42244;SDS011;27912;51.828;5.688;2023-05-10T10:05:36;14.40;;;8.93;;
42244;SDS011;27912;51.828;5.688;2023-05-10T10:08:05;16.55;;;10.38;;
42244;SDS011;27912;51.828;5.688;2023-05-10T10:10:32;15.60;;;10.30;;
42244;SDS011;27912;51.828;5.688;2023-05-10T10:12:58;11.60;;;8.35;;
42244;SDS011;27912;51.828;5.688;2023-05-10T10:15:25;14.23;;;9.57;;
42244;SDS011;27912;51.828;5.688;2023-05-10T10:17:51;13.40;;;8.88;;
42244;SDS011;27912;51.828;5.688;2023-05-10T10:20:19;11.02;;;7.50;;
42244;SDS011;27912;51.828;5.688;2023-05-10T10:22:46;12.88;;;8.32;;
42244;SDS011;27912;51.828;5.688;2023-05-10T10:25:12;12.32;;;8.45;;
42244;SDS011;27912;51.828;5.688;2023-05-10T10:27:43;10.07;;;7.70;;
42244;SDS011;27912;51.828;5.688;2023-05-10T10:30:19;9.35;;;6.78;;
42244;SDS011;27912;51.828;5.688;2023-05-10T10:38:23;10.00;;;6.45;;
42244;SDS011;27912;51.828;5.688;2023-05-10T10:40:57;11.20;;;6.30;;
42244;SDS011;27912;51.828;5.688;2023-05-10T10:43:34;9.20;;;6.30;;
42244;SDS011;27912;51.828;5.688;2023-05-10T10:46:10;9.55;;;6.65;;
42244;SDS011;27912;51.828;5.688;2023-05-10T10:49:25;9.55;;;6.18;;
42244;SDS011;27912;51.828;5.688;2023-05-10T10:51:38;9.50;;;6.80;;
42244;SDS011;27912;51.828;5.688;2023-05-10T10:54:10;10.68;;;7.25;;
42244;SDS011;27912;51.828;5.688;2023-05-10T10:56:36;8.63;;;6.15;;
42244;SDS011;27912;51.828;5.688;2023-05-10T10:59:02;7.65;;;5.53;;
42244;SDS011;27912;51.828;5.688;2023-05-10T11:01:32;7.80;;;5.43;;
42244;SDS011;27912;51.828;5.688;2023-05-10T11:06:28;7.40;;;4.93;;
42244;SDS011;27912;51.828;5.688;2023-05-10T11:08:56;9.15;;;5.57;;
42244;SDS011;27912;51.828;5.688;2023-05-10T11:11:22;9.18;;;5.60;;
42244;SDS011;27912;51.828;5.688;2023-05-10T11:13:48;9.77;;;4.63;;
42244;SDS011;27912;51.828;5.688;2023-05-10T11:16:15;9.73;;;5.45;;
42244;SDS011;27912;51.828;5.688;2023-05-10T11:19:01;7.95;;;5.35;;
42244;SDS011;27912;51.828;5.688;2023-05-10T11:21:44;5.93;;;4.47;;
42244;SDS011;27912;51.828;5.688;2023-05-10T11:24:26;7.50;;;4.33;;
42244;SDS011;27912;51.828;5.688;2023-05-10T11:27:02;7.30;;;4.68;;
42244;SDS011;27912;51.828;5.688;2023-05-10T11:29:28;8.30;;;4.85;;
42244;SDS011;27912;51.828;5.688;2023-05-10T11:31:56;6.55;;;4.35;;
42244;SDS011;27912;51.828;5.688;2023-05-10T11:34:24;6.80;;;3.97;;
42244;SDS011;27912;51.828;5.688;2023-05-10T11:36:55;9.85;;;5.10;;
42244;SDS011;27912;51.828;5.688;2023-05-10T11:39:25;7.35;;;4.50;;
42244;SDS011;27912;51.828;5.688;2023-05-10T11:41:52;6.45;;;4.47;;
42244;SDS011;27912;51.828;5.688;2023-05-10T11:44:18;5.95;;;4.22;;
42244;SDS011;27912;51.828;5.688;2023-05-10T11:46:43;5.80;;;4.00;;
42244;SDS011;27912;51.828;5.688;2023-05-10T11:49:09;6.63;;;4.28;;
42244;SDS011;27912;51.828;5.688;2023-05-10T11:51:35;7.82;;;4.60;;
42244;SDS011;27912;51.828;5.688;2023-05-10T11:54:04;4.55;;;3.75;;
42244;SDS011;27912;51.828;5.688;2023-05-10T11:56:32;7.38;;;4.30;;
42244;SDS011;27912;51.828;5.688;2023-05-10T11:58:58;7.70;;;4.22;;
42244;SDS011;27912;51.828;5.688;2023-05-10T12:01:25;6.68;;;4.50;;
42244;SDS011;27912;51.828;5.688;2023-05-10T12:03:52;7.00;;;4.50;;
42244;SDS011;27912;51.828;5.688;2023-05-10T12:06:25;5.82;;;3.80;;
42244;SDS011;27912;51.828;5.688;2023-05-10T12:08:56;5.15;;;3.97;;
42244;SDS011;27912;51.828;5.688;2023-05-10T12:11:26;6.97;;;4.50;;
42244;SDS011;27912;51.828;5.688;2023-05-10T12:13:53;7.82;;;4.75;;
42244;SDS011;27912;51.828;5.688;2023-05-10T12:16:20;7.00;;;5.00;;
42244;SDS011;27912;51.828;5.688;2023-05-10T12:18:49;6.40;;;4.85;;
42244;SDS011;27912;51.828;5.688;2023-05-10T12:21:19;6.60;;;4.90;;
42244;SDS011;27912;51.828;5.688;2023-05-10T12:23:46;8.18;;;6.05;;
42244;SDS011;27912;51.828;5.688;2023-05-10T12:26:13;8.30;;;6.38;;
42244;SDS011;27912;51.828;5.688;2023-05-10T12:28:39;6.45;;;5.32;;
42244;SDS011;27912;51.828;5.688;2023-05-10T12:31:05;10.20;;;6.20;;
42244;SDS011;27912;51.828;5.688;2023-05-10T12:33:41;9.52;;;6.47;;
42244;SDS011;27912;51.828;5.688;2023-05-10T12:36:09;9.63;;;6.57;;
42244;SDS011;27912;51.828;5.688;2023-05-10T12:38:36;10.02;;;7.72;;
42244;SDS011;27912;51.828;5.688;2023-05-10T12:41:07;11.95;;;7.65;;
42244;SDS011;27912;51.828;5.688;2023-05-10T12:43:37;12.23;;;7.47;;
42244;SDS011;27912;51.828;5.688;2023-05-10T12:46:04;11.43;;;7.70;;
42244;SDS011;27912;51.828;5.688;2023-05-10T12:48:34;10.55;;;7.93;;
42244;SDS011;27912;51.828;5.688;2023-05-10T12:51:01;12.93;;;8.32;;
42244;SDS011;27912;51.828;5.688;2023-05-10T12:53:27;12.57;;;9.15;;
42244;SDS011;27912;51.828;5.688;2023-05-10T12:55:52;11.75;;;8.98;;
42244;SDS011;27912;51.828;5.688;2023-05-10T12:58:18;9.93;;;8.45;;
42244;SDS011;27912;51.828;5.688;2023-05-10T13:00:44;8.93;;;7.35;;
42244;SDS011;27912;51.828;5.688;2023-05-10T13:03:10;8.65;;;7.07;;
42244;SDS011;27912;51.828;5.688;2023-05-10T13:05:36;9.18;;;6.53;;
42244;SDS011;27912;51.828;5.688;2023-05-10T13:08:01;8.15;;;6.82;;
42244;SDS011;27912;51.828;5.688;2023-05-10T13:10:28;9.13;;;6.65;;
42244;SDS011;27912;51.828;5.688;2023-05-10T13:12:55;7.22;;;6.38;;
42244;SDS011;27912;51.828;5.688;2023-05-10T13:15:20;10.57;;;6.95;;
42244;SDS011;27912;51.828;5.688;2023-05-10T13:17:46;10.30;;;6.47;;
42244;SDS011;27912;51.828;5.688;2023-05-10T13:20:11;7.70;;;6.53;;
42244;SDS011;27912;51.828;5.688;2023-05-10T13:22:37;8.13;;;6.07;;
42244;SDS011;27912;51.828;5.688;2023-05-10T13:25:03;6.72;;;5.95;;
42244;SDS011;27912;51.828;5.688;2023-05-10T13:27:28;8.70;;;6.63;;
42244;SDS011;27912;51.828;5.688;2023-05-10T13:29:54;10.00;;;6.53;;
42244;SDS011;27912;51.828;5.688;2023-05-10T13:32:20;8.60;;;6.45;;
42244;SDS011;27912;51.828;5.688;2023-05-10T13:34:45;6.90;;;6.18;;
42244;SDS011;27912;51.828;5.688;2023-05-10T13:37:11;9.10;;;7.25;;
42244;SDS011;27912;51.828;5.688;2023-05-10T13:39:37;8.95;;;7.90;;
42244;SDS011;27912;51.828;5.688;2023-05-10T13:42:03;10.38;;;7.70;;
42244;SDS011;27912;51.828;5.688;2023-05-10T13:44:30;8.60;;;7.70;;
42244;SDS011;27912;51.828;5.688;2023-05-10T13:46:56;8.27;;;7.22;;
42244;SDS011;27912;51.828;5.688;2023-05-10T13:49:21;8.80;;;7.90;;
42244;SDS011;27912;51.828;5.688;2023-05-10T13:51:47;9.98;;;8.68;;
42244;SDS011;27912;51.828;5.688;2023-05-10T13:54:13;8.88;;;7.85;;
42244;SDS011;27912;51.828;5.688;2023-05-10T13:56:39;9.88;;;7.47;;
42244;SDS011;27912;51.828;5.688;2023-05-10T13:59:05;10.13;;;7.97;;
42244;SDS011;27912;51.828;5.688;2023-05-10T14:01:32;10.20;;;8.80;;
42244;SDS011;27912;51.828;5.688;2023-05-10T14:03:58;10.95;;;9.63;;
42244;SDS011;27912;51.828;5.688;2023-05-10T14:06:24;12.30;;;10.38;;
42244;SDS011;27912;51.828;5.688;2023-05-10T14:08:50;10.48;;;9.30;;
42244;SDS011;27912;51.828;5.688;2023-05-10T14:11:15;10.25;;;9.15;;
42244;SDS011;27912;51.828;5.688;2023-05-10T14:13:41;15.07;;;8.00;;
42244;SDS011;27912;51.828;5.688;2023-05-10T14:16:06;8.77;;;7.57;;
42244;SDS011;27912;51.828;5.688;2023-05-10T14:18:32;5.60;;;5.00;;
42244;SDS011;27912;51.828;5.688;2023-05-10T14:20:58;6.10;;;4.20;;
42244;SDS011;27912;51.828;5.688;2023-05-10T14:23:23;5.53;;;4.45;;
42244;SDS011;27912;51.828;5.688;2023-05-10T14:25:49;5.32;;;3.95;;
42244;SDS011;27912;51.828;5.688;2023-05-10T14:28:16;4.78;;;4.03;;
42244;SDS011;27912;51.828;5.688;2023-05-10T14:30:45;6.00;;;4.40;;
42244;SDS011;27912;51.828;5.688;2023-05-10T14:33:11;5.55;;;4.75;;
42244;SDS011;27912;51.828;5.688;2023-05-10T14:35:38;7.38;;;6.15;;
42244;SDS011;27912;51.828;5.688;2023-05-10T14:38:04;8.82;;;7.93;;
42244;SDS011;27912;51.828;5.688;2023-05-10T14:40:30;8.98;;;8.05;;
42244;SDS011;27912;51.828;5.688;2023-05-10T14:42:56;10.32;;;9.32;;
42244;SDS011;27912;51.828;5.688;2023-05-10T14:45:22;13.10;;;10.07;;
42244;SDS011;27912;51.828;5.688;2023-05-10T14:47:48;11.60;;;10.43;;
42244;SDS011;27912;51.828;5.688;2023-05-10T14:50:14;11.23;;;10.02;;
42244;SDS011;27912;51.828;5.688;2023-05-10T14:52:41;12.07;;;10.82;;